sensor_id;sensor_type;location;lat;lon;timestamp;pressure;altitude;pressure_sealevel;temperature;humidity
9139;BME280;4604;48.616;9.548;2023-04-10T00:01:28;97450.91;;;7.18;65.32
9139;BME280;4604;48.616;9.548;2023-04-10T00:03:59;97458.75;;;6.92;65.96
9139;BME280;4604;48.616;9.548;2023-04-10T00:06:28;97461.50;;;7.03;65.17
9139;BME280;4604;48.616;9.548;2023-04-10T00:08:56;97464.00;;;6.92;66.04
9139;BME280;4604;48.616;9.548;2023-04-10T00:11:23;97467.44;;;6.80;67.41
9139;BME280;4604;48.616;9.548;2023-04-10T00:13:50;97461.06;;;6.71;66.83
9139;BME280;4604;48.616;9.548;2023-04-10T00:16:16;97466.34;;;7.10;65.19
9139;BME280;4604;48.616;9.548;2023-04-10T00:18:43;97465.00;;;7.29;63.47
9139;BME280;4604;48.616;9.548;2023-04-10T00:21:10;97463.38;;;7.14;63.84
9139;BME280;4604;48.616;9.548;2023-04-10T00:23:38;97460.06;;;7.25;63.48
9139;BME280;4604;48.616;9.548;2023-04-10T00:26:05;97463.00;;;7.07;64.31
9139;BME280;4604;48.616;9.548;2023-04-10T00:28:31;97467.28;;;7.21;63.30
9139;BME280;4604;48.616;9.548;2023-04-10T00:31:02;97466.13;;;7.13;63.54
9139;BME280;4604;48.616;9.548;2023-04-10T00:33:28;97458.97;;;7.02;64.04
9139;BME280;4604;48.616;9.548;2023-04-10T00:35:55;97459.41;;;6.96;64.56
9139;BME280;4604;48.616;9.548;2023-04-10T00:38:22;97456.44;;;6.88;64.99
9139;BME280;4604;48.616;9.548;2023-04-10T00:40:50;97455.00;;;7.35;62.31
9139;BME280;4604;48.616;9.548;2023-04-10T00:43:17;97441.56;;;7.39;61.29
9139;BME280;4604;48.616;9.548;2023-04-10T00:45:47;97454.47;;;7.04;62.58
9139;BME280;4604;48.616;9.548;2023-04-10T00:48:14;97454.25;;;6.81;63.99
9139;BME280;4604;48.616;9.548;2023-04-10T00:50:40;97454.47;;;7.04;64.14
9139;BME280;4604;48.616;9.548;2023-04-10T00:53:07;97442.81;;;7.21;62.36
9139;BME280;4604;48.616;9.548;2023-04-10T00:55:34;97444.19;;;6.88;63.77
9139;BME280;4604;48.616;9.548;2023-04-10T00:58:02;97440.28;;;6.94;63.67
9139;BME280;4604;48.616;9.548;2023-04-10T01:00:29;97441.16;;;7.20;63.08
9139;BME280;4604;48.616;9.548;2023-04-10T01:02:56;97439.06;;;7.12;63.07
9139;BME280;4604;48.616;9.548;2023-04-10T01:05:28;97433.47;;;7.04;64.29
9139;BME280;4604;48.616;9.548;2023-04-10T01:08:05;97434.41;;;7.16;63.12
9139;BME280;4604;48.616;9.548;2023-04-10T01:10:38;97431.47;;;7.33;63.07
9139;BME280;4604;48.616;9.548;2023-04-10T01:13:15;97440.19;;;6.95;64.30
9139;BME280;4604;48.616;9.548;2023-04-10T01:15:51;97439.78;;;7.14;63.11
9139;BME280;4604;48.616;9.548;2023-04-10T01:18:25;97431.66;;;7.43;60.92
9139;BME280;4604;48.616;9.548;2023-04-10T01:20:56;97440.09;;;7.22;61.51
9139;BME280;4604;48.616;9.548;2023-04-10T01:23:56;97442.00;;;7.20;62.25
9139;BME280;4604;48.616;9.548;2023-04-10T01:26:52;97440.81;;;7.12;62.84
9139;BME280;4604;48.616;9.548;2023-04-10T01:29:24;97440.91;;;6.84;64.12
9139;BME280;4604;48.616;9.548;2023-04-10T01:31:59;97443.28;;;6.62;65.43
9139;BME280;4604;48.616;9.548;2023-04-10T01:34:31;97441.94;;;6.56;66.37
9139;BME280;4604;48.616;9.548;2023-04-10T01:37:00;97437.03;;;6.77;65.45
9139;BME280;4604;48.616;9.548;2023-04-10T01:39:28;97450.75;;;6.68;64.60
9139;BME280;4604;48.616;9.548;2023-04-10T01:41:57;97454.69;;;6.48;66.01
9139;BME280;4604;48.616;9.548;2023-04-10T01:44:28;97455.78;;;6.31;66.82
9139;BME280;4604;48.616;9.548;2023-04-10T01:46:56;97453.88;;;6.20;67.59
9139;BME280;4604;48.616;9.548;2023-04-10T01:49:25;97454.47;;;6.11;69.05
9139;BME280;4604;48.616;9.548;2023-04-10T01:51:52;97446.78;;;6.35;66.90
9139;BME280;4604;48.616;9.548;2023-04-10T01:54:23;97454.75;;;6.34;66.97
9139;BME280;4604;48.616;9.548;2023-04-10T01:56:52;97453.81;;;6.35;66.65
9139;BME280;4604;48.616;9.548;2023-04-10T01:59:19;97458.25;;;6.47;65.18
9139;BME280;4604;48.616;9.548;2023-04-10T02:01:47;97452.03;;;6.35;66.20
9139;BME280;4604;48.616;9.548;2023-04-10T02:04:14;97459.44;;;6.29;66.89
9139;BME280;4604;48.616;9.548;2023-04-10T02:06:45;97456.59;;;6.19;66.79
9139;BME280;4604;48.616;9.548;2023-04-10T02:09:19;97453.28;;;6.03;67.34
9139;BME280;4604;48.616;9.548;2023-04-10T02:11:53;97456.94;;;6.00;67.30
9139;BME280;4604;48.616;9.548;2023-04-10T02:14:21;97452.19;;;6.19;64.90
9139;BME280;4604;48.616;9.548;2023-04-10T02:16:51;97454.72;;;6.21;65.05
9139;BME280;4604;48.616;9.548;2023-04-10T02:19:19;97451.94;;;6.10;67.18
9139;BME280;4604;48.616;9.548;2023-04-10T02:21:48;97447.34;;;6.13;65.95
9139;BME280;4604;48.616;9.548;2023-04-10T02:24:15;97445.44;;;6.03;66.95
9139;BME280;4604;48.616;9.548;2023-04-10T02:26:45;97441.94;;;6.02;66.67
9139;BME280;4604;48.616;9.548;2023-04-10T02:29:12;97444.47;;;6.04;66.42
9139;BME280;4604;48.616;9.548;2023-04-10T02:31:39;97427.91;;;6.03;65.82
9139;BME280;4604;48.616;9.548;2023-04-10T02:34:07;97434.75;;;6.06;65.63
9139;BME280;4604;48.616;9.548;2023-04-10T02:36:35;97436.06;;;5.98;66.81
9139;BME280;4604;48.616;9.548;2023-04-10T02:39:02;97443.25;;;5.95;66.05
9139;BME280;4604;48.616;9.548;2023-04-10T02:41:30;97433.38;;;5.86;66.14
9139;BME280;4604;48.616;9.548;2023-04-10T02:43:57;97440.94;;;5.90;65.46
9139;BME280;4604;48.616;9.548;2023-04-10T02:46:23;97422.72;;;5.74;66.07
9139;BME280;4604;48.616;9.548;2023-04-10T02:48:50;97427.97;;;5.60;67.32
9139;BME280;4604;48.616;9.548;2023-04-10T02:51:18;97422.75;;;5.46;67.72
9139;BME280;4604;48.616;9.548;2023-04-10T02:53:46;97426.81;;;5.37;68.00
9139;BME280;4604;48.616;9.548;2023-04-10T02:56:13;97429.50;;;5.50;67.68
9139;BME280;4604;48.616;9.548;2023-04-10T02:58:40;97422.91;;;5.71;67.30
9139;BME280;4604;48.616;9.548;2023-04-10T03:01:10;97420.56;;;5.95;65.57
9139;BME280;4604;48.616;9.548;2023-04-10T03:03:37;97412.94;;;6.05;65.20
9139;BME280;4604;48.616;9.548;2023-04-10T03:06:04;97417.44;;;5.89;65.26
9139;BME280;4604;48.616;9.548;2023-04-10T03:08:32;97420.28;;;5.86;65.69
9139;BME280;4604;48.616;9.548;2023-04-10T03:10:59;97419.34;;;5.72;66.86
9139;BME280;4604;48.616;9.548;2023-04-10T03:13:25;97421.41;;;5.67;67.25
9139;BME280;4604;48.616;9.548;2023-04-10T03:15:52;97423.19;;;5.67;67.18
9139;BME280;4604;48.616;9.548;2023-04-10T03:18:19;97416.94;;;5.69;67.38
9139;BME280;4604;48.616;9.548;2023-04-10T03:20:45;97415.81;;;5.73;66.60
9139;BME280;4604;48.616;9.548;2023-04-10T03:23:12;97419.03;;;5.91;66.07
9139;BME280;4604;48.616;9.548;2023-04-10T03:25:40;97414.53;;;5.93;65.26
9139;BME280;4604;48.616;9.548;2023-04-10T03:28:07;97414.91;;;5.87;65.16
9139;BME280;4604;48.616;9.548;2023-04-10T03:30:34;97425.69;;;5.97;64.55
9139;BME280;4604;48.616;9.548;2023-04-10T03:33:01;97420.81;;;5.91;64.74
9139;BME280;4604;48.616;9.548;2023-04-10T03:35:27;97434.94;;;6.03;65.51
9139;BME280;4604;48.616;9.548;2023-04-10T03:37:54;97439.72;;;5.96;65.89
9139;BME280;4604;48.616;9.548;2023-04-10T03:40:21;97432.88;;;5.93;65.73
9139;BME280;4604;48.616;9.548;2023-04-10T03:42:49;97432.94;;;6.06;64.94
9139;BME280;4604;48.616;9.548;2023-04-10T03:45:16;97432.63;;;5.69;66.36
9139;BME280;4604;48.616;9.548;2023-04-10T03:47:42;97445.94;;;5.52;68.27
9139;BME280;4604;48.616;9.548;2023-04-10T03:50:09;97429.19;;;5.69;67.36
9139;BME280;4604;48.616;9.548;2023-04-10T03:52:36;97425.56;;;5.57;67.56
9139;BME280;4604;48.616;9.548;2023-04-10T03:55:03;97423.69;;;5.59;68.50
9139;BME280;4604;48.616;9.548;2023-04-10T03:57:29;97422.16;;;5.69;67.66
9139;BME280;4604;48.616;9.548;2023-04-10T03:59:57;97426.13;;;5.48;68.30
9139;BME280;4604;48.616;9.548;2023-04-10T04:02:24;97422.38;;;5.66;68.11
9139;BME280;4604;48.616;9.548;2023-04-10T04:04:51;97420.88;;;5.48;68.87
9139;BME280;4604;48.616;9.548;2023-04-10T04:07:18;97419.22;;;5.32;69.20
9139;BME280;4604;48.616;9.548;2023-04-10T04:09:44;97424.81;;;5.55;68.03
9139;BME280;4604;48.616;9.548;2023-04-10T04:12:11;97429.50;;;5.35;69.63
9139;BME280;4604;48.616;9.548;2023-04-10T04:14:37;97425.22;;;5.34;69.41
9139;BME280;4604;48.616;9.548;2023-04-10T04:17:06;97421.44;;;5.39;69.11
9139;BME280;4604;48.616;9.548;2023-04-10T04:19:32;97420.91;;;5.19;70.03
9139;BME280;4604;48.616;9.548;2023-04-10T04:21:59;97418.13;;;5.36;69.80
9139;BME280;4604;48.616;9.548;2023-04-10T04:24:26;97429.41;;;5.08;71.00
9139;BME280;4604;48.616;9.548;2023-04-10T04:26:52;97416.59;;;4.89;71.96
9139;BME280;4604;48.616;9.548;2023-04-10T04:29:19;97420.63;;;4.81;71.88
9139;BME280;4604;48.616;9.548;2023-04-10T04:31:45;97423.75;;;4.71;72.35
9139;BME280;4604;48.616;9.548;2023-04-10T04:34:13;97419.25;;;4.59;72.76
9139;BME280;4604;48.616;9.548;2023-04-10T04:36:41;97410.78;;;4.70;72.47
9139;BME280;4604;48.616;9.548;2023-04-10T04:39:07;97415.84;;;5.02;69.66
9139;BME280;4604;48.616;9.548;2023-04-10T04:41:34;97421.44;;;4.81;71.49
9139;BME280;4604;48.616;9.548;2023-04-10T04:44:01;97416.28;;;4.65;72.25
9139;BME280;4604;48.616;9.548;2023-04-10T04:46:27;97418.16;;;4.63;72.76
9139;BME280;4604;48.616;9.548;2023-04-10T04:48:54;97416.66;;;4.59;72.73
9139;BME280;4604;48.616;9.548;2023-04-10T04:51:22;97399.44;;;4.55;73.25
9139;BME280;4604;48.616;9.548;2023-04-10T04:53:49;97409.09;;;4.69;72.89
9139;BME280;4604;48.616;9.548;2023-04-10T04:56:15;97405.75;;;4.81;72.14
9139;BME280;4604;48.616;9.548;2023-04-10T04:58:42;97407.66;;;5.08;70.10
9139;BME280;4604;48.616;9.548;2023-04-10T05:01:08;97405.59;;;5.27;69.64
9139;BME280;4604;48.616;9.548;2023-04-10T05:03:35;97407.09;;;5.17;69.91
9139;BME280;4604;48.616;9.548;2023-04-10T05:06:03;97400.44;;;5.11;70.06
9139;BME280;4604;48.616;9.548;2023-04-10T05:08:31;97395.03;;;5.14;70.07
9139;BME280;4604;48.616;9.548;2023-04-10T05:10:58;97397.34;;;5.33;69.51
9139;BME280;4604;48.616;9.548;2023-04-10T05:13:25;97404.84;;;5.81;64.31
9139;BME280;4604;48.616;9.548;2023-04-10T05:15:51;97390.13;;;5.93;64.79
9139;BME280;4604;48.616;9.548;2023-04-10T05:18:18;97394.44;;;5.94;64.94
9139;BME280;4604;48.616;9.548;2023-04-10T05:20:47;97390.88;;;5.95;64.93
9139;BME280;4604;48.616;9.548;2023-04-10T05:23:14;97389.25;;;5.92;64.82
9139;BME280;4604;48.616;9.548;2023-04-10T05:25:42;97387.34;;;5.96;63.52
9139;BME280;4604;48.616;9.548;2023-04-10T05:28:09;97394.63;;;6.18;61.75
9139;BME280;4604;48.616;9.548;2023-04-10T05:30:36;97400.03;;;6.29;61.98
9139;BME280;4604;48.616;9.548;2023-04-10T05:33:02;97391.56;;;6.51;62.00
9139;BME280;4604;48.616;9.548;2023-04-10T05:35:29;97395.78;;;6.67;60.89
9139;BME280;4604;48.616;9.548;2023-04-10T05:37:55;97384.44;;;7.04;58.63
9139;BME280;4604;48.616;9.548;2023-04-10T05:40:23;97391.78;;;6.99;57.94
9139;BME280;4604;48.616;9.548;2023-04-10T05:42:51;97399.16;;;6.94;59.06
9139;BME280;4604;48.616;9.548;2023-04-10T05:45:18;97398.44;;;7.05;59.21
9139;BME280;4604;48.616;9.548;2023-04-10T05:47:45;97391.78;;;7.25;58.63
9139;BME280;4604;48.616;9.548;2023-04-10T05:50:12;97398.84;;;7.24;58.55
9139;BME280;4604;48.616;9.548;2023-04-10T05:52:38;97398.09;;;7.22;59.10
9139;BME280;4604;48.616;9.548;2023-04-10T05:55:06;97400.16;;;7.43;57.93
9139;BME280;4604;48.616;9.548;2023-04-10T05:57:33;97395.09;;;7.53;58.22
9139;BME280;4604;48.616;9.548;2023-04-10T06:00:02;97402.22;;;7.63;56.99
9139;BME280;4604;48.616;9.548;2023-04-10T06:02:29;97393.06;;;7.69;57.23
9139;BME280;4604;48.616;9.548;2023-04-10T06:04:56;97389.63;;;7.92;55.10
9139;BME280;4604;48.616;9.548;2023-04-10T06:07:22;97395.00;;;7.91;55.70
9139;BME280;4604;48.616;9.548;2023-04-10T06:09:49;97390.09;;;8.22;54.32
9139;BME280;4604;48.616;9.548;2023-04-10T06:12:16;97392.28;;;8.28;54.94
9139;BME280;4604;48.616;9.548;2023-04-10T06:14:43;97396.09;;;8.48;53.85
9139;BME280;4604;48.616;9.548;2023-04-10T06:17:11;97391.06;;;8.45;53.61
9139;BME280;4604;48.616;9.548;2023-04-10T06:19:37;97393.69;;;8.45;53.95
9139;BME280;4604;48.616;9.548;2023-04-10T06:22:04;97392.88;;;8.55;53.96
9139;BME280;4604;48.616;9.548;2023-04-10T06:24:30;97393.38;;;8.61;54.44
9139;BME280;4604;48.616;9.548;2023-04-10T06:26:57;97406.00;;;8.68;53.90
9139;BME280;4604;48.616;9.548;2023-04-10T06:29:24;97398.09;;;8.79;53.22
9139;BME280;4604;48.616;9.548;2023-04-10T06:31:51;97395.84;;;8.86;53.19
9139;BME280;4604;48.616;9.548;2023-04-10T06:34:19;97401.16;;;8.97;52.69
9139;BME280;4604;48.616;9.548;2023-04-10T06:36:45;97393.81;;;8.90;53.28
9139;BME280;4604;48.616;9.548;2023-04-10T06:39:12;97397.09;;;9.05;53.15
9139;BME280;4604;48.616;9.548;2023-04-10T06:41:38;97391.81;;;9.16;52.51
9139;BME280;4604;48.616;9.548;2023-04-10T06:44:05;97392.50;;;9.07;52.32
9139;BME280;4604;48.616;9.548;2023-04-10T06:46:32;97391.78;;;8.93;53.01
9139;BME280;4604;48.616;9.548;2023-04-10T06:49:00;97378.63;;;8.93;52.85
9139;BME280;4604;48.616;9.548;2023-04-10T06:51:28;97379.13;;;9.10;52.74
9139;BME280;4604;48.616;9.548;2023-04-10T06:53:55;97371.94;;;9.00;53.21
9139;BME280;4604;48.616;9.548;2023-04-10T06:56:22;97385.59;;;9.17;52.67
9139;BME280;4604;48.616;9.548;2023-04-10T06:58:48;97387.50;;;9.15;53.42
9139;BME280;4604;48.616;9.548;2023-04-10T07:01:15;97380.81;;;9.11;53.30
9139;BME280;4604;48.616;9.548;2023-04-10T07:03:42;97382.59;;;9.33;52.98
9139;BME280;4604;48.616;9.548;2023-04-10T07:06:09;97380.19;;;9.41;52.89
9139;BME280;4604;48.616;9.548;2023-04-10T07:08:37;97385.97;;;9.35;54.04
9139;BME280;4604;48.616;9.548;2023-04-10T07:11:04;97376.97;;;9.37;53.74
9139;BME280;4604;48.616;9.548;2023-04-10T07:13:31;97380.69;;;9.46;53.39
9139;BME280;4604;48.616;9.548;2023-04-10T07:15:59;97386.53;;;9.50;53.32
9139;BME280;4604;48.616;9.548;2023-04-10T07:18:26;97379.09;;;9.66;52.98
9139;BME280;4604;48.616;9.548;2023-04-10T07:20:52;97371.78;;;9.70;52.39
9139;BME280;4604;48.616;9.548;2023-04-10T07:23:19;97377.16;;;9.79;52.73
9139;BME280;4604;48.616;9.548;2023-04-10T07:25:48;97373.78;;;9.89;51.98
9139;BME280;4604;48.616;9.548;2023-04-10T07:28:16;97382.44;;;9.79;52.58
9139;BME280;4604;48.616;9.548;2023-04-10T07:30:42;97388.41;;;9.81;52.25
9139;BME280;4604;48.616;9.548;2023-04-10T07:33:09;97383.81;;;9.95;51.79
9139;BME280;4604;48.616;9.548;2023-04-10T07:35:36;97390.03;;;10.05;52.10
9139;BME280;4604;48.616;9.548;2023-04-10T07:38:02;97390.81;;;10.17;51.47
9139;BME280;4604;48.616;9.548;2023-04-10T07:40:29;97389.97;;;10.27;51.41
9139;BME280;4604;48.616;9.548;2023-04-10T07:42:57;97394.00;;;10.43;51.35
9139;BME280;4604;48.616;9.548;2023-04-10T07:45:24;97393.81;;;10.56;50.61
9139;BME280;4604;48.616;9.548;2023-04-10T07:47:52;97396.84;;;10.72;50.15
9139;BME280;4604;48.616;9.548;2023-04-10T07:50:18;97404.78;;;10.93;49.45
9139;BME280;4604;48.616;9.548;2023-04-10T07:52:45;97405.88;;;10.90;49.72
9139;BME280;4604;48.616;9.548;2023-04-10T07:55:11;97399.63;;;11.12;49.45
9139;BME280;4604;48.616;9.548;2023-04-10T07:57:38;97399.78;;;11.21;49.30
9139;BME280;4604;48.616;9.548;2023-04-10T08:00:07;97373.97;;;11.24;48.06
9139;BME280;4604;48.616;9.548;2023-04-10T08:02:34;97395.78;;;11.26;47.76
9139;BME280;4604;48.616;9.548;2023-04-10T08:05:01;97390.75;;;11.23;48.33
9139;BME280;4604;48.616;9.548;2023-04-10T08:07:27;97393.78;;;11.19;48.56
9139;BME280;4604;48.616;9.548;2023-04-10T08:09:54;97405.56;;;11.35;48.10
9139;BME280;4604;48.616;9.548;2023-04-10T08:12:21;97399.69;;;11.63;47.24
9139;BME280;4604;48.616;9.548;2023-04-10T08:14:47;97403.75;;;11.67;47.13
9139;BME280;4604;48.616;9.548;2023-04-10T08:17:17;97403.72;;;11.88;46.12
9139;BME280;4604;48.616;9.548;2023-04-10T08:19:43;97395.50;;;11.91;46.07
9139;BME280;4604;48.616;9.548;2023-04-10T08:22:10;97397.16;;;12.02;45.85
9139;BME280;4604;48.616;9.548;2023-04-10T08:24:37;97397.75;;;12.15;44.71
9139;BME280;4604;48.616;9.548;2023-04-10T08:27:03;97395.81;;;12.17;45.51
9139;BME280;4604;48.616;9.548;2023-04-10T08:29:30;97391.91;;;12.50;45.37
9139;BME280;4604;48.616;9.548;2023-04-10T08:31:57;97385.91;;;12.68;44.15
9139;BME280;4604;48.616;9.548;2023-04-10T08:34:26;97390.09;;;12.60;43.60
9139;BME280;4604;48.616;9.548;2023-04-10T08:36:53;97389.66;;;12.84;43.75
9139;BME280;4604;48.616;9.548;2023-04-10T08:39:20;97383.25;;;12.87;43.10
9139;BME280;4604;48.616;9.548;2023-04-10T08:41:46;97377.34;;;13.03;41.72
9139;BME280;4604;48.616;9.548;2023-04-10T08:44:13;97333.75;;;12.88;41.70
9139;BME280;4604;48.616;9.548;2023-04-10T08:46:42;97347.22;;;13.04;42.19
9139;BME280;4604;48.616;9.548;2023-04-10T08:49:15;97336.47;;;13.15;41.42
9139;BME280;4604;48.616;9.548;2023-04-10T08:51:50;97349.47;;;13.46;40.15
9139;BME280;4604;48.616;9.548;2023-04-10T08:54:25;97377.13;;;13.71;41.37
9139;BME280;4604;48.616;9.548;2023-04-10T08:56:54;97347.81;;;13.45;40.44
9139;BME280;4604;48.616;9.548;2023-04-10T08:59:23;97338.31;;;13.42;40.89
9139;BME280;4604;48.616;9.548;2023-04-10T09:01:49;97340.09;;;13.52;41.12
9139;BME280;4604;48.616;9.548;2023-04-10T09:04:17;97362.81;;;13.82;39.40
9139;BME280;4604;48.616;9.548;2023-04-10T09:06:46;97307.78;;;13.38;39.19
9139;BME280;4604;48.616;9.548;2023-04-10T09:09:12;97342.00;;;13.59;39.05
9139;BME280;4604;48.616;9.548;2023-04-10T09:11:56;97372.00;;;13.87;39.27
9139;BME280;4604;48.616;9.548;2023-04-10T09:14:25;97368.75;;;13.94;39.92
9139;BME280;4604;48.616;9.548;2023-04-10T09:17:05;97349.44;;;14.01;38.27
9139;BME280;4604;48.616;9.548;2023-04-10T09:19:35;97335.25;;;14.10;39.04
9139;BME280;4604;48.616;9.548;2023-04-10T09:22:04;97360.28;;;14.26;38.24
9139;BME280;4604;48.616;9.548;2023-04-10T09:24:34;97348.31;;;14.40;37.10
9139;BME280;4604;48.616;9.548;2023-04-10T09:27:01;97318.88;;;14.33;37.22
9139;BME280;4604;48.616;9.548;2023-04-10T09:29:38;97285.06;;;14.17;37.22
9139;BME280;4604;48.616;9.548;2023-04-10T09:32:05;97272.41;;;13.93;37.87
9139;BME280;4604;48.616;9.548;2023-04-10T09:34:32;97329.56;;;14.41;37.50
9139;BME280;4604;48.616;9.548;2023-04-10T09:37:00;97347.06;;;14.70;35.93
9139;BME280;4604;48.616;9.548;2023-04-10T09:39:38;97284.34;;;14.33;36.34
9139;BME280;4604;48.616;9.548;2023-04-10T09:42:08;97280.63;;;14.44;36.61
9139;BME280;4604;48.616;9.548;2023-04-10T09:44:36;97312.06;;;14.74;36.22
9139;BME280;4604;48.616;9.548;2023-04-10T09:47:15;97305.03;;;14.91;35.40
9139;BME280;4604;48.616;9.548;2023-04-10T09:49:44;97261.00;;;14.63;34.88
9139;BME280;4604;48.616;9.548;2023-04-10T09:52:17;97279.81;;;14.69;36.17
9139;BME280;4604;48.616;9.548;2023-04-10T09:54:46;97271.44;;;14.82;35.25
9139;BME280;4604;48.616;9.548;2023-04-10T09:57:15;97246.00;;;14.80;34.86
9139;BME280;4604;48.616;9.548;2023-04-10T09:59:47;97265.88;;;15.02;35.59
9139;BME280;4604;48.616;9.548;2023-04-10T10:02:16;97270.94;;;15.13;34.69
9139;BME280;4604;48.616;9.548;2023-04-10T10:04:44;97269.16;;;15.22;35.61
9139;BME280;4604;48.616;9.548;2023-04-10T10:07:12;97269.53;;;15.35;35.50
9139;BME280;4604;48.616;9.548;2023-04-10T10:09:39;97229.47;;;15.36;35.40
9139;BME280;4604;48.616;9.548;2023-04-10T10:12:09;97230.13;;;15.38;35.73
9139;BME280;4604;48.616;9.548;2023-04-10T10:14:41;97290.69;;;15.95;34.80
9139;BME280;4604;48.616;9.548;2023-04-10T10:17:11;97288.50;;;15.91;35.22
9139;BME280;4604;48.616;9.548;2023-04-10T10:19:44;97278.03;;;16.05;34.94
9139;BME280;4604;48.616;9.548;2023-04-10T10:22:15;97230.44;;;15.94;34.39
9139;BME280;4604;48.616;9.548;2023-04-10T10:24:45;97244.09;;;16.08;34.65
9139;BME280;4604;48.616;9.548;2023-04-10T10:27:15;97240.44;;;16.17;34.88
9139;BME280;4604;48.616;9.548;2023-04-10T10:29:45;97257.88;;;16.52;34.50
9139;BME280;4604;48.616;9.548;2023-04-10T10:32:16;97224.56;;;16.48;34.48
9139;BME280;4604;48.616;9.548;2023-04-10T10:34:44;97251.53;;;16.69;33.30
9139;BME280;4604;48.616;9.548;2023-04-10T10:37:11;97258.00;;;16.75;34.44
9139;BME280;4604;48.616;9.548;2023-04-10T10:39:44;97257.19;;;16.91;35.22
9139;BME280;4604;48.616;9.548;2023-04-10T10:42:22;97257.66;;;16.95;34.78
9139;BME280;4604;48.616;9.548;2023-04-10T10:44:58;97251.63;;;17.09;34.58
9139;BME280;4604;48.616;9.548;2023-04-10T10:47:28;97247.50;;;16.98;33.63
9139;BME280;4604;48.616;9.548;2023-04-10T10:49:56;97261.09;;;17.20;34.57
9139;BME280;4604;48.616;9.548;2023-04-10T10:52:42;97258.06;;;17.23;33.16
9139;BME280;4604;48.616;9.548;2023-04-10T10:55:31;97250.31;;;16.97;34.05
9139;BME280;4604;48.616;9.548;2023-04-10T10:58:04;97255.53;;;16.90;34.33
9139;BME280;4604;48.616;9.548;2023-04-10T11:01:04;97251.66;;;17.01;34.41
9139;BME280;4604;48.616;9.548;2023-04-10T11:03:32;97237.56;;;17.23;34.44
9139;BME280;4604;48.616;9.548;2023-04-10T11:06:01;97222.72;;;17.21;34.34
9139;BME280;4604;48.616;9.548;2023-04-10T11:08:36;97221.25;;;17.18;33.12
9139;BME280;4604;48.616;9.548;2023-04-10T11:11:05;97158.75;;;16.81;33.20
9139;BME280;4604;48.616;9.548;2023-04-10T11:13:35;97203.63;;;17.40;33.77
9139;BME280;4604;48.616;9.548;2023-04-10T11:16:03;97211.72;;;17.55;34.02
9139;BME280;4604;48.616;9.548;2023-04-10T11:19:02;97230.16;;;17.65;33.18
9139;BME280;4604;48.616;9.548;2023-04-10T11:21:30;97233.19;;;17.62;33.91
9139;BME280;4604;48.616;9.548;2023-04-10T11:24:04;97222.81;;;17.67;34.18
9139;BME280;4604;48.616;9.548;2023-04-10T11:26:40;97209.97;;;17.70;33.93
9139;BME280;4604;48.616;9.548;2023-04-10T11:29:35;97223.53;;;17.61;34.42
9139;BME280;4604;48.616;9.548;2023-04-10T11:32:03;97218.94;;;17.46;33.88
9139;BME280;4604;48.616;9.548;2023-04-10T11:34:30;97211.09;;;17.45;33.91
9139;BME280;4604;48.616;9.548;2023-04-10T11:36:57;97213.78;;;17.45;33.73
9139;BME280;4604;48.616;9.548;2023-04-10T11:39:25;97210.31;;;17.36;34.03
9139;BME280;4604;48.616;9.548;2023-04-10T11:41:53;97214.22;;;17.25;33.09
9139;BME280;4604;48.616;9.548;2023-04-10T11:44:27;97204.97;;;17.36;33.87
9139;BME280;4604;48.616;9.548;2023-04-10T11:46:55;97205.19;;;17.58;32.48
9139;BME280;4604;48.616;9.548;2023-04-10T11:49:24;97204.44;;;17.72;33.36
9139;BME280;4604;48.616;9.548;2023-04-10T11:51:52;97204.06;;;17.75;31.66
9139;BME280;4604;48.616;9.548;2023-04-10T11:54:20;97176.13;;;17.63;31.55
9139;BME280;4604;48.616;9.548;2023-04-10T11:56:56;97207.84;;;17.89;31.96
9139;BME280;4604;48.616;9.548;2023-04-10T11:59:23;97189.75;;;17.99;30.50
9139;BME280;4604;48.616;9.548;2023-04-10T12:01:52;97206.41;;;18.01;30.61
9139;BME280;4604;48.616;9.548;2023-04-10T12:04:22;97204.00;;;17.91;31.22
9139;BME280;4604;48.616;9.548;2023-04-10T12:06:51;97183.53;;;17.84;30.29
9139;BME280;4604;48.616;9.548;2023-04-10T12:09:19;97200.09;;;18.02;30.55
9139;BME280;4604;48.616;9.548;2023-04-10T12:11:51;97204.28;;;17.96;31.20
9139;BME280;4604;48.616;9.548;2023-04-10T12:14:18;97199.63;;;18.13;30.84
9139;BME280;4604;48.616;9.548;2023-04-10T12:16:45;97195.72;;;18.24;30.89
9139;BME280;4604;48.616;9.548;2023-04-10T12:19:13;97197.00;;;18.28;30.76
9139;BME280;4604;48.616;9.548;2023-04-10T12:21:44;97186.78;;;18.32;30.65
9139;BME280;4604;48.616;9.548;2023-04-10T12:24:11;97164.41;;;18.48;28.77
9139;BME280;4604;48.616;9.548;2023-04-10T12:26:46;97176.31;;;18.60;29.69
9139;BME280;4604;48.616;9.548;2023-04-10T12:29:12;97166.63;;;18.59;29.08
9139;BME280;4604;48.616;9.548;2023-04-10T12:31:39;97167.47;;;18.74;29.20
9139;BME280;4604;48.616;9.548;2023-04-10T12:34:06;97153.94;;;18.61;28.65
9139;BME280;4604;48.616;9.548;2023-04-10T12:36:34;97157.97;;;18.57;29.04
9139;BME280;4604;48.616;9.548;2023-04-10T12:39:03;97155.66;;;18.69;29.70
9139;BME280;4604;48.616;9.548;2023-04-10T12:41:32;97140.19;;;18.79;29.46
9139;BME280;4604;48.616;9.548;2023-04-10T12:44:06;97159.09;;;18.92;28.52
9139;BME280;4604;48.616;9.548;2023-04-10T12:46:33;97152.72;;;18.93;29.14
9139;BME280;4604;48.616;9.548;2023-04-10T12:49:08;97144.88;;;18.92;28.34
9139;BME280;4604;48.616;9.548;2023-04-10T12:51:45;97143.94;;;18.99;28.43
9139;BME280;4604;48.616;9.548;2023-04-10T12:54:27;97146.53;;;19.08;28.40
9139;BME280;4604;48.616;9.548;2023-04-10T12:56:54;97138.97;;;18.96;28.36
9139;BME280;4604;48.616;9.548;2023-04-10T12:59:22;97131.88;;;19.03;29.15
9139;BME280;4604;48.616;9.548;2023-04-10T13:01:48;97126.34;;;19.05;27.90
9139;BME280;4604;48.616;9.548;2023-04-10T13:04:15;97117.88;;;18.87;27.75
9139;BME280;4604;48.616;9.548;2023-04-10T13:06:43;97134.66;;;18.66;27.71
9139;BME280;4604;48.616;9.548;2023-04-10T13:09:11;97123.13;;;18.80;28.46
9139;BME280;4604;48.616;9.548;2023-04-10T13:11:40;97112.44;;;18.95;28.22
9139;BME280;4604;48.616;9.548;2023-04-10T13:14:07;97099.31;;;19.00;28.42
9139;BME280;4604;48.616;9.548;2023-04-10T13:16:34;97104.72;;;19.07;28.02
9139;BME280;4604;48.616;9.548;2023-04-10T13:19:01;97096.94;;;19.27;27.75
9139;BME280;4604;48.616;9.548;2023-04-10T13:21:27;97087.16;;;19.19;28.23
9139;BME280;4604;48.616;9.548;2023-04-10T13:23:54;97097.25;;;19.17;28.20
9139;BME280;4604;48.616;9.548;2023-04-10T13:26:21;97102.56;;;19.32;28.10
9139;BME280;4604;48.616;9.548;2023-04-10T13:28:49;97093.81;;;19.23;27.32
9139;BME280;4604;48.616;9.548;2023-04-10T13:31:16;97102.97;;;19.35;27.73
9139;BME280;4604;48.616;9.548;2023-04-10T13:33:43;97093.22;;;19.28;27.14
9139;BME280;4604;48.616;9.548;2023-04-10T13:36:12;97060.53;;;19.11;27.09